Bethlehem, Kentucky
Current Conditions -  °F | °C
As of 6:53 PM on Tuesday 25 Nov 2014 (Local Time) from KFFT Reporting Station
Clear Clear  
Wind Chill: 37°   Ceiling: Unl
Heat Index: 37°   Visibility: 10mi
Dew Point: 27°   Wind: 3mph
Humidity: 67%   Direction: 320°NW
Pressure: 30.13"   Gusts: NA
Location:  38.4°N, 85.07°W
Report Text: KFFT 252353Z AUTO 32003KT 10SM CLR 03/M03 A3013 RMK AO2 SLP209 T00281028 10078 20028 51007
Loading
Personal Weather Stations






























Interactive Weather Map New forecast layout! Learn more

10-Day Weather Forecast

Advertisements
Track Severe Weather on mobile